Time;durP1;ratioP1;P1;durP2;ratioP2;P2;SDS_P1;SDS_P2;PMS_P1;PMS_P2;Temp;Humidity;BMP_temperature;BMP_pressure;BME280_temperature;BME280_humidity;BME280_pressure;Samples;Min_cycle;Max_cycle;Signal;HPM_P1;HPM_P2
2022/12/16 00:01:09;;;;;;;31.73;21.65;;;1.30;99.90;;;;;;5114738;27;20065;-78
2022/12/16 00:03:36;;;;;;;31.15;21.08;;;1.60;99.90;;;;;;5107033;27;20051;-78
2022/12/16 00:06:03;;;;;;;34.00;21.23;;;1.50;99.90;;;;;;5133041;27;20050;-78
2022/12/16 00:08:37;;;;;;;30.75;20.23;;;1.20;99.90;;;;;;5112769;27;20232;-78
2022/12/16 00:11:03;;;;;;;32.58;21.17;;;1.20;99.90;;;;;;5116147;27;20051;-78
2022/12/16 00:13:30;;;;;;;31.95;20.55;;;1.10;99.90;;;;;;5114518;28;20040;-77
2022/12/16 00:15:56;;;;;;;32.70;22.33;;;2.70;99.90;;;;;;5102329;28;20066;-78
2022/12/16 00:18:22;;;;;;;29.77;20.58;;;1.10;99.90;;;;;;5082246;28;20455;-77
2022/12/16 00:20:51;;;;;;;33.00;22.40;;;1.10;99.90;;;;;;5093875;28;20127;-78
2022/12/16 00:23:17;;;;;;;35.22;21.70;;;1.10;99.90;;;;;;5075710;28;20048;-78
2022/12/16 00:25:43;;;;;;;34.28;21.40;;;1.80;99.90;;;;;;5075307;28;20055;-78
2022/12/16 00:28:10;;;;;;;31.67;20.42;;;1.10;99.90;;;;;;5075337;28;20064;-78
2022/12/16 00:30:36;;;;;;;31.50;20.73;;;1.20;99.90;;;;;;5093526;28;20052;-78
2022/12/16 00:33:02;;;;;;;29.23;20.58;;;1.10;99.90;;;;;;5074853;28;20074;-77
2022/12/16 00:35:29;;;;;;;29.52;19.70;;;1.10;99.90;;;;;;5074320;28;20064;-78
2022/12/16 00:37:55;;;;;;;27.10;18.00;;;1.90;99.90;;;;;;5075239;28;20083;-78
2022/12/16 00:40:21;;;;;;;30.35;17.35;;;2.50;99.90;;;;;;5074965;28;20068;-77
2022/12/16 00:42:46;;;;;;;28.00;17.25;;;1.20;99.90;;;;;;5092533;28;20054;-78
2022/12/16 00:45:12;;;;;;;22.08;14.77;;;1.30;99.90;;;;;;5093292;28;20059;-78
2022/12/16 00:47:38;;;;;;;22.08;14.77;;;2.40;99.90;;;;;;5108712;27;20058;-78
2022/12/16 00:50:04;;;;;;;21.48;13.35;;;2.10;99.90;;;;;;5108005;28;20071;-77
2022/12/16 00:52:30;;;;;;;21.90;12.63;;;1.40;99.90;;;;;;5110284;27;20081;-77
2022/12/16 00:54:55;;;;;;;18.67;11.10;;;1.40;99.90;;;;;;5096902;28;20048;-78
2022/12/16 00:57:21;;;;;;;22.98;10.25;;;2.20;99.90;;;;;;5102640;27;20407;-77
2022/12/16 00:59:47;;;;;;;15.07;9.00;;;1.50;99.90;;;;;;5120981;27;20047;-77
2022/12/16 01:02:13;;;;;;;19.75;7.85;;;1.50;99.90;;;;;;5110538;27;20399;-78
2022/12/16 01:04:38;;;;;;;15.32;7.57;;;1.60;99.90;;;;;;5100273;27;20064;-77
2022/12/16 01:07:04;;;;;;;11.48;6.78;;;1.70;99.90;;;;;;5126197;27;20076;-79
2022/12/16 01:09:30;;;;;;;11.38;6.85;;;1.70;99.90;;;;;;5113093;28;20061;-78
2022/12/16 01:11:55;;;;;;;9.95;6.47;;;1.80;99.90;;;;;;5114252;27;20039;-77
2022/12/16 01:14:21;;;;;;;12.60;6.40;;;1.80;99.90;;;;;;5107097;27;20059;-77
2022/12/16 01:16:47;;;;;;;8.43;5.25;;;3.30;99.90;;;;;;5102842;28;20052;-78
2022/12/16 01:19:13;;;;;;;8.63;5.15;;;1.90;99.90;;;;;;5074719;28;20074;-77
2022/12/16 01:21:38;;;;;;;8.13;5.05;;;2.40;99.90;;;;;;5082830;28;20116;-77
2022/12/16 01:24:04;;;;;;;10.20;5.00;;;2.00;99.90;;;;;;5091955;28;20056;-77
2022/12/16 01:26:30;;;;;;;7.28;4.68;;;2.00;99.90;;;;;;5074593;28;20062;-78
2022/12/16 01:28:57;;;;;;;7.75;4.47;;;2.10;99.90;;;;;;5057954;28;20052;-78
2022/12/16 01:31:23;;;;;;;9.18;5.13;;;3.00;99.90;;;;;;5074431;28;20048;-77
2022/12/16 01:33:49;;;;;;;8.32;4.72;;;3.50;99.90;;;;;;5097948;28;20131;-76
2022/12/16 01:36:16;;;;;;;8.00;4.82;;;2.30;99.90;;;;;;5110692;28;20043;-77
2022/12/16 01:38:43;;;;;;;8.88;4.68;;;2.30;99.90;;;;;;5094597;28;20070;-77
2022/12/16 01:41:11;;;;;;;7.03;4.70;;;2.60;99.90;;;;;;5111871;28;20453;-77
2022/12/16 01:43:38;;;;;;;10.73;4.80;;;3.80;99.90;;;;;;5092823;28;20056;-77
2022/12/16 01:46:24;;;;;;;9.13;4.95;;;2.40;99.90;;;;;;5109692;28;20408;-77
2022/12/16 01:49:09;;;;;;;7.47;4.50;;;2.40;99.90;;;;;;5126004;28;20066;-77
2022/12/16 01:51:39;;;;;;;6.03;4.13;;;3.30;99.90;;;;;;5100506;28;20043;-77
2022/12/16 01:54:14;;;;;;;7.43;4.13;;;2.50;99.90;;;;;;5092719;28;20501;-77
2022/12/16 01:56:44;;;;;;;6.57;4.38;;;2.50;99.90;;;;;;5094941;28;20058;-77
2022/12/16 01:59:13;;;;;;;6.43;4.68;;;2.60;99.90;;;;;;5133238;28;20192;-77
2022/12/16 02:01:39;;;;;;;8.30;4.32;;;4.20;99.90;;;;;;5120212;28;20039;-77
2022/12/16 02:04:04;;;;;;;9.52;3.97;;;2.60;99.90;;;;;;5116115;28;20039;-77
2022/12/16 02:06:30;;;;;;;6.80;4.20;;;3.80;99.90;;;;;;5109341;28;20062;-77
2022/12/16 02:08:59;;;;;;;8.13;3.97;;;2.60;99.90;;;;;;5115175;28;20044;-77
2022/12/16 02:11:46;;;;;;;6.35;4.18;;;2.60;99.90;;;;;;5105751;28;20144;-77
2022/12/16 02:14:12;;;;;;;10.10;4.30;;;3.30;99.90;;;;;;5116096;28;20047;-77
2022/12/16 02:16:46;;;;;;;6.55;3.70;;;2.60;99.90;;;;;;5116580;28;20115;-77
2022/12/16 02:19:36;;;;;;;8.73;4.22;;;2.60;99.90;;;;;;5097910;28;20112;-77
2022/12/16 02:22:22;;;;;;;10.23;4.90;;;2.60;99.90;;;;;;5081372;28;20105;-77
2022/12/16 02:25:26;;;;;;;9.10;4.75;;;2.80;99.90;;;;;;5098077;28;20063;-77
2022/12/16 02:28:02;;;;;;;7.47;4.35;;;2.60;99.90;;;;;;5072015;28;20051;-77
2022/12/16 02:30:46;;;;;;;7.78;4.70;;;3.80;99.90;;;;;;5128228;27;20162;-77
2022/12/16 02:33:40;;;;;;;7.68;4.65;;;2.70;99.90;;;;;;5135396;27;20103;-77
2022/12/16 02:36:25;;;;;;;8.18;4.25;;;2.70;99.90;;;;;;5136648;27;20050;-77
2022/12/16 02:39:07;;;;;;;9.07;4.22;;;2.70;99.90;;;;;;5101635;27;20139;-76
2022/12/16 02:41:45;;;;;;;11.57;4.40;;;2.70;99.90;;;;;;5118809;27;20051;-77
2022/12/16 02:44:12;;;;;;;9.98;4.35;;;3.90;99.90;;;;;;5117994;27;20048;-77
2022/12/16 02:46:50;;;;;;;7.30;4.43;;;3.80;99.90;;;;;;5136759;27;20120;-77
2022/12/16 02:49:15;;;;;;;8.45;4.45;;;2.70;99.90;;;;;;5081754;28;20044;-77
2022/12/16 02:51:41;;;;;;;7.57;4.63;;;2.60;99.90;;;;;;5060968;28;20046;-77
2022/12/16 02:54:08;;;;;;;7.97;4.72;;;2.60;99.90;;;;;;5083797;28;20054;-77
2022/12/16 02:57:06;;;;;;;9.95;4.90;;;4.00;99.90;;;;;;5078781;28;20063;-77
2022/12/16 02:59:56;;;;;;;8.93;4.60;;;2.80;99.90;;;;;;5097204;28;20051;-77
2022/12/16 03:02:54;;;;;;;9.38;4.80;;;2.70;99.90;;;;;;5097008;28;20044;-77
2022/12/16 03:05:41;;;;;;;6.45;4.75;;;2.80;99.90;;;;;;5071955;28;20164;-77
2022/12/16 03:08:13;;;;;;;9.68;5.40;;;2.70;99.90;;;;;;5088870;28;20070;-77
2022/12/16 03:10:46;;;;;;;10.20;5.65;;;3.10;99.90;;;;;;5114700;28;20438;-77
2022/12/16 03:13:14;;;;;;;8.88;5.57;;;3.90;99.90;;;;;;5096867;28;20051;-77
2022/12/16 03:15:42;;;;;;;11.90;6.55;;;4.20;99.90;;;;;;5072132;28;20063;-77
2022/12/16 03:18:10;;;;;;;10.80;7.22;;;3.70;99.90;;;;;;5077850;28;20063;-77
2022/12/16 03:20:44;;;;;;;11.32;7.03;;;4.30;99.90;;;;;;5094829;28;20493;-76
2022/12/16 03:23:16;;;;;;;12.90;7.50;;;2.90;99.90;;;;;;5109958;28;20048;-77
2022/12/16 03:25:44;;;;;;;13.25;8.85;;;2.90;99.90;;;;;;5060004;28;20139;-77
2022/12/16 03:28:25;;;;;;;14.35;9.57;;;2.90;99.90;;;;;;5091455;28;20511;-77
2022/12/16 03:31:00;;;;;;;15.55;10.50;;;3.00;99.90;;;;;;5071140;28;20056;-76
2022/12/16 03:33:37;;;;;;;16.98;11.50;;;3.00;99.90;;;;;;5108456;28;20509;-77
2022/12/16 03:36:08;;;;;;;18.70;13.48;;;2.90;99.90;;;;;;5113269;28;20058;-77
2022/12/16 03:38:35;;;;;;;20.27;13.02;;;2.90;99.90;;;;;;5081958;28;20078;-77
2022/12/16 03:41:03;;;;;;;19.42;12.95;;;4.00;99.90;;;;;;5114838;28;20134;-77
2022/12/16 03:43:29;;;;;;;22.83;16.85;;;3.00;99.90;;;;;;5095802;28;20059;-77
2022/12/16 03:46:01;;;;;;;22.27;16.15;;;2.90;99.90;;;;;;5099147;28;20040;-77
2022/12/16 03:48:27;;;;;;;27.88;18.15;;;2.80;99.90;;;;;;5094347;28;20127;-77
2022/12/16 03:50:52;;;;;;;27.08;18.88;;;2.80;99.90;;;;;;5092626;28;20131;-77
2022/12/16 03:53:18;;;;;;;29.50;19.65;;;3.60;99.90;;;;;;5107589;28;20484;-77
2022/12/16 03:55:44;;;;;;;25.23;16.30;;;2.80;99.90;;;;;;5113024;28;20079;-77
2022/12/16 03:58:09;;;;;;;30.75;21.35;;;4.10;99.90;;;;;;5096877;28;20048;-77
2022/12/16 04:00:35;;;;;;;33.72;22.48;;;2.90;99.90;;;;;;5109974;28;20085;-77
2022/12/16 04:03:01;;;;;;;32.75;21.10;;;4.00;99.90;;;;;;5082537;28;20221;-77
2022/12/16 04:05:26;;;;;;;37.17;22.05;;;4.00;99.90;;;;;;5102101;28;20097;-76
2022/12/16 04:07:52;;;;;;;34.65;22.25;;;2.60;99.90;;;;;;5101801;28;20044;-77
2022/12/16 04:24:17;;;;;;;34.38;22.75;;;4.10;99.90;;;;;;5096986;28;20087;-76
2022/12/16 04:24:19;;;;;;;35.33;22.55;;;3.20;99.90;;;;;;5073406;28;20088;-77
2022/12/16 04:29:31;;;;;;;36.80;23.42;;;2.50;99.90;;;;;;5076745;28;20518;-77
2022/12/16 04:31:57;;;;;;;37.70;23.40;;;2.40;99.90;;;;;;5106111;28;20063;-77
2022/12/16 04:34:28;;;;;;;40.40;24.98;;;2.40;99.90;;;;;;5113431;28;20054;-77
